Time,TemperatureF,DewpointF,PressureIn,WindDirection,WindDirectionDegrees,WindSpeedMPH,WindSpeedGustMPH,Humidity,HourlyPrecipIn,Conditions,Clouds,dailyrainin,SoftwareType,DateUTC
2013-04-25 00:00:00,50.0,49.5,29.70,NNW,331,3.0,3.0,98,0.00,,,0.00,Wunderground v.1.13,2013-04-25 04:00:00,
2013-04-25 00:30:00,49.8,48.7,29.71,NW,317,3.0,6.0,96,0.00,,,0.00,Wunderground v.1.13,2013-04-25 04:30:00,
2013-04-25 01:00:00,48.5,47.4,29.70,WSW,257,3.0,5.0,96,0.00,,,0.00,Wunderground v.1.13,2013-04-25 05:00:00,
2013-04-25 01:30:00,47.5,46.4,29.69,West,277,3.0,3.0,96,0.00,,,0.00,Wunderground v.1.13,2013-04-25 05:30:00,
2013-04-25 02:00:00,47.2,46.4,29.69,NNW,338,2.0,2.0,97,0.00,,,0.00,Wunderground v.1.13,2013-04-25 06:00:00,
2013-04-25 02:30:00,46.6,45.8,29.68,NW,316,1.0,1.0,97,0.00,,,0.00,Wunderground v.1.13,2013-04-25 06:30:00,
2013-04-25 03:00:00,46.0,45.2,29.68,South,169,1.0,1.0,97,0.00,,,0.00,Wunderground v.1.13,2013-04-25 07:00:00,
2013-04-25 03:30:00,46.0,45.2,29.67,North,355,1.0,1.0,97,0.00,,,0.00,Wunderground v.1.13,2013-04-25 07:30:00,
2013-04-25 04:00:00,45.7,44.9,29.65,North,355,1.0,1.0,97,0.00,,,0.01,Wunderground v.1.13,2013-04-25 08:00:00,
2013-04-25 04:30:00,45.3,44.8,29.65,WNW,292,1.0,1.0,98,0.00,,,0.01,Wunderground v.1.13,2013-04-25 08:30:00,
2013-04-25 05:00:00,45.5,44.7,29.65,NW,322,5.0,5.0,97,0.00,,,0.01,Wunderground v.1.13,2013-04-25 09:00:00,
2013-04-25 05:30:00,45.5,44.7,29.68,West,275,7.0,7.0,97,0.06,,,0.03,Wunderground v.1.13,2013-04-25 09:30:00,
2013-04-25 06:00:00,45.6,44.8,29.67,NNW,337,6.0,6.0,97,0.00,,,0.03,Wunderground v.1.13,2013-04-25 10:00:00,
2013-04-25 06:30:00,46.0,45.2,29.69,NNW,342,7.0,7.0,97,0.00,,,0.03,Wunderground v.1.13,2013-04-25 10:30:00,
2013-04-25 07:00:00,46.3,45.5,29.70,WNW,292,5.0,5.0,97,0.00,,,0.03,Wunderground v.1.13,2013-04-25 11:00:00,
2013-04-25 07:30:00,46.8,45.7,29.74,NW,311,8.0,8.0,96,0.00,,,0.03,Wunderground v.1.13,2013-04-25 11:30:00,
2013-04-25 08:00:00,46.8,45.7,29.76,NNW,330,5.0,5.0,96,0.00,,,0.03,Wunderground v.1.13,2013-04-25 12:00:00,
2013-04-25 08:30:00,47.7,45.5,29.77,NNW,339,4.0,4.0,92,0.00,,,0.03,Wunderground v.1.13,2013-04-25 12:30:00,
2013-04-25 09:00:00,48.1,44.1,29.78,North,360,4.0,4.0,86,0.00,,,0.03,Wunderground v.1.13,2013-04-25 13:00:00,
2013-04-25 09:30:00,48.8,42.2,29.80,NNE,17,6.0,6.0,78,0.00,,,0.03,Wunderground v.1.13,2013-04-25 13:30:00,
2013-04-25 10:00:00,50.7,39.7,29.82,East,83,4.0,6.0,66,0.00,,,0.03,Wunderground v.1.13,2013-04-25 14:00:00,
2013-04-25 10:30:00,49.0,36.5,29.83,NW,322,6.0,6.0,62,0.00,,,0.03,Wunderground v.1.13,2013-04-25 14:30:00,
2013-04-25 11:00:00,49.8,35.2,29.86,NE,38,8.0,8.0,57,0.00,,,0.03,Wunderground v.1.13,2013-04-25 15:00:00,
2013-04-25 11:30:00,49.2,34.6,29.89,South,184,5.0,5.0,57,0.00,,,0.03,Wunderground v.1.13,2013-04-25 15:30:00,
2013-04-25 12:00:00,49.2,32.8,29.91,ENE,58,7.0,7.0,53,0.00,,,0.03,Wunderground v.1.13,2013-04-25 16:00:00,
2013-04-25 12:30:00,48.9,33.4,29.93,NNE,24,5.0,5.0,55,0.00,,,0.03,Wunderground v.1.13,2013-04-25 16:30:00,
2013-04-25 13:00:00,50.7,32.7,29.95,NNE,21,6.0,6.0,50,0.00,,,0.03,Wunderground v.1.13,2013-04-25 17:00:00,
2013-04-25 13:30:00,50.8,32.8,29.97,NNE,32,5.0,5.0,50,0.00,,,0.03,Wunderground v.1.13,2013-04-25 17:30:00,
2013-04-25 14:00:00,50.3,33.3,29.99,ENE,76,5.0,5.0,52,0.00,,,0.03,Wunderground v.1.13,2013-04-25 18:00:00,
2013-04-25 14:30:00,51.2,31.6,30.00,East,88,6.0,10.0,47,0.00,,,0.03,Wunderground v.1.13,2013-04-25 18:30:00,
2013-04-25 15:00:00,52.9,32.1,30.00,East,82,5.0,5.0,45,0.00,,,0.03,Wunderground v.1.13,2013-04-25 19:00:00,
2013-04-25 15:30:00,51.8,31.7,30.02,ENE,72,5.0,5.0,46,0.00,,,0.03,Wunderground v.1.13,2013-04-25 19:30:00,
2013-04-25 16:00:00,52.2,31.5,30.03,NNE,18,5.0,5.0,45,0.00,,,0.03,Wunderground v.1.13,2013-04-25 20:00:00,
2013-04-25 16:30:00,53.2,30.7,30.05,ENE,64,4.0,4.0,42,0.00,,,0.03,Wunderground v.1.13,2013-04-25 20:30:00,
2013-04-25 17:00:00,52.4,29.4,30.06,ESE,121,5.0,5.0,41,0.00,,,0.03,Wunderground v.1.13,2013-04-25 21:00:00,
2013-04-25 17:30:00,52.2,28.6,30.07,ESE,115,4.0,4.0,40,0.00,,,0.03,Wunderground v.1.13,2013-04-25 21:30:00,
2013-04-25 18:00:00,51.8,28.2,30.09,East,80,5.0,7.0,40,0.00,,,0.03,Wunderground v.1.13,2013-04-25 22:00:00,
2013-04-25 18:30:00,50.7,27.2,30.12,ESE,119,4.0,4.0,40,0.00,,,0.03,Wunderground v.1.13,2013-04-25 22:30:00,
2013-04-25 19:00:00,48.6,27.1,30.14,SE,134,2.0,2.0,43,0.00,,,0.03,Wunderground v.1.13,2013-04-25 23:00:00,
2013-04-25 19:30:00,45.7,27.6,30.16,East,94,0.0,3.0,49,0.00,,,0.03,Wunderground v.1.13,2013-04-25 23:30:00,
2013-04-25 20:30:00,38.5,27.0,30.20,East,98,0.0,0.0,63,0.00,,,0.03,Wunderground v.1.13,2013-04-26 00:30:00,
2013-04-25 21:00:00,36.9,27.0,30.23,East,98,0.0,0.0,67,0.00,,,0.03,Wunderground v.1.13,2013-04-26 01:00:00,
2013-04-25 21:30:00,36.0,26.8,30.26,South,172,0.0,0.0,69,0.00,,,0.03,Wunderground v.1.13,2013-04-26 01:30:00,
2013-04-25 22:00:00,38.1,27.7,30.27,SSW,205,0.0,0.0,66,0.00,,,0.03,Wunderground v.1.13,2013-04-26 02:00:00,
2013-04-25 22:30:00,35.1,27.0,30.28,SSW,205,0.0,0.0,72,0.00,,,0.03,Wunderground v.1.13,2013-04-26 02:30:00,
2013-04-25 23:30:00,30.9,26.9,30.31,SSW,205,0.0,0.0,85,0.00,,,0.03,Wunderground v.1.13,2013-04-26 03:30:00,